sensor_id;sensor_type;location;lat;lon;timestamp;P1;durP1;ratioP1;P2;durP2;ratioP2
38427;SDS011;24211;49.980;19.776;2022-07-11T00:01:05;3.88;;;1.05;;
38427;SDS011;24211;49.980;19.776;2022-07-11T00:03:32;3.05;;;1.10;;
38427;SDS011;24211;49.980;19.776;2022-07-11T00:05:59;4.05;;;0.90;;
38427;SDS011;24211;49.980;19.776;2022-07-11T00:08:28;1.70;;;0.90;;
38427;SDS011;24211;49.980;19.776;2022-07-11T00:10:55;3.45;;;1.10;;
38427;SDS011;24211;49.980;19.776;2022-07-11T00:13:22;2.67;;;1.00;;
38427;SDS011;24211;49.980;19.776;2022-07-11T00:15:51;2.38;;;0.90;;
38427;SDS011;24211;49.980;19.776;2022-07-11T00:18:19;3.42;;;0.80;;
38427;SDS011;24211;49.980;19.776;2022-07-11T00:20:47;2.90;;;1.00;;
38427;SDS011;24211;49.980;19.776;2022-07-11T00:23:14;2.88;;;1.02;;
38427;SDS011;24211;49.980;19.776;2022-07-11T00:25:41;2.20;;;0.98;;
38427;SDS011;24211;49.980;19.776;2022-07-11T00:28:08;3.38;;;1.00;;
38427;SDS011;24211;49.980;19.776;2022-07-11T00:30:35;1.77;;;0.80;;
38427;SDS011;24211;49.980;19.776;2022-07-11T00:33:03;3.95;;;1.05;;
38427;SDS011;24211;49.980;19.776;2022-07-11T00:35:30;4.40;;;1.05;;
38427;SDS011;24211;49.980;19.776;2022-07-11T00:37:57;2.17;;;0.90;;
38427;SDS011;24211;49.980;19.776;2022-07-11T00:40:24;2.85;;;1.00;;
38427;SDS011;24211;49.980;19.776;2022-07-11T00:42:52;3.33;;;1.00;;
38427;SDS011;24211;49.980;19.776;2022-07-11T00:45:19;2.70;;;1.10;;
38427;SDS011;24211;49.980;19.776;2022-07-11T00:47:46;3.05;;;1.10;;
38427;SDS011;24211;49.980;19.776;2022-07-11T00:50:14;3.78;;;1.00;;
38427;SDS011;24211;49.980;19.776;2022-07-11T00:52:42;1.95;;;0.70;;
38427;SDS011;24211;49.980;19.776;2022-07-11T00:55:10;1.73;;;0.80;;
38427;SDS011;24211;49.980;19.776;2022-07-11T00:57:38;1.67;;;0.80;;
38427;SDS011;24211;49.980;19.776;2022-07-11T01:00:06;2.90;;;0.80;;
38427;SDS011;24211;49.980;19.776;2022-07-11T01:02:35;1.65;;;0.77;;
38427;SDS011;24211;49.980;19.776;2022-07-11T01:05:06;1.55;;;0.75;;
38427;SDS011;24211;49.980;19.776;2022-07-11T01:07:33;2.20;;;0.80;;
38427;SDS011;24211;49.980;19.776;2022-07-11T01:10:01;2.17;;;0.80;;
38427;SDS011;24211;49.980;19.776;2022-07-11T01:12:28;2.30;;;0.90;;
38427;SDS011;24211;49.980;19.776;2022-07-11T01:14:56;3.40;;;1.00;;
38427;SDS011;24211;49.980;19.776;2022-07-11T01:17:26;2.55;;;0.90;;
38427;SDS011;24211;49.980;19.776;2022-07-11T01:19:55;3.13;;;1.02;;
38427;SDS011;24211;49.980;19.776;2022-07-11T01:22:23;3.22;;;0.90;;
38427;SDS011;24211;49.980;19.776;2022-07-11T01:24:54;2.25;;;0.80;;
38427;SDS011;24211;49.980;19.776;2022-07-11T01:27:22;2.33;;;0.90;;
38427;SDS011;24211;49.980;19.776;2022-07-11T01:29:50;3.95;;;0.90;;
38427;SDS011;24211;49.980;19.776;2022-07-11T01:32:18;3.10;;;0.90;;
38427;SDS011;24211;49.980;19.776;2022-07-11T01:34:46;2.30;;;1.00;;
38427;SDS011;24211;49.980;19.776;2022-07-11T01:37:14;2.20;;;0.90;;
38427;SDS011;24211;49.980;19.776;2022-07-11T01:39:41;1.88;;;0.90;;
38427;SDS011;24211;49.980;19.776;2022-07-11T01:42:08;2.55;;;1.00;;
38427;SDS011;24211;49.980;19.776;2022-07-11T01:44:35;3.22;;;0.80;;
38427;SDS011;24211;49.980;19.776;2022-07-11T01:47:02;1.60;;;0.88;;
38427;SDS011;24211;49.980;19.776;2022-07-11T01:49:30;3.35;;;1.02;;
38427;SDS011;24211;49.980;19.776;2022-07-11T01:51:57;2.60;;;0.98;;
38427;SDS011;24211;49.980;19.776;2022-07-11T01:54:24;2.10;;;0.65;;
38427;SDS011;24211;49.980;19.776;2022-07-11T01:56:51;1.88;;;0.80;;
38427;SDS011;24211;49.980;19.776;2022-07-11T01:59:18;2.60;;;0.90;;
38427;SDS011;24211;49.980;19.776;2022-07-11T02:01:46;2.08;;;1.00;;
38427;SDS011;24211;49.980;19.776;2022-07-11T02:04:13;3.70;;;0.90;;
38427;SDS011;24211;49.980;19.776;2022-07-11T02:06:40;2.95;;;1.02;;
38427;SDS011;24211;49.980;19.776;2022-07-11T02:09:07;3.17;;;0.80;;
38427;SDS011;24211;49.980;19.776;2022-07-11T02:11:34;4.25;;;1.10;;
38427;SDS011;24211;49.980;19.776;2022-07-11T02:14:01;3.00;;;1.10;;
38427;SDS011;24211;49.980;19.776;2022-07-11T02:16:28;3.42;;;1.00;;
38427;SDS011;24211;49.980;19.776;2022-07-11T02:18:56;2.17;;;1.00;;
38427;SDS011;24211;49.980;19.776;2022-07-11T02:21:23;2.67;;;0.88;;
38427;SDS011;24211;49.980;19.776;2022-07-11T02:23:51;2.15;;;1.02;;
38427;SDS011;24211;49.980;19.776;2022-07-11T02:26:18;3.83;;;1.00;;
38427;SDS011;24211;49.980;19.776;2022-07-11T02:28:45;3.08;;;1.00;;
38427;SDS011;24211;49.980;19.776;2022-07-11T02:31:13;1.88;;;0.90;;
38427;SDS011;24211;49.980;19.776;2022-07-11T02:33:41;2.38;;;1.15;;
38427;SDS011;24211;49.980;19.776;2022-07-11T02:36:09;3.08;;;1.20;;
38427;SDS011;24211;49.980;19.776;2022-07-11T02:38:37;4.32;;;1.00;;
38427;SDS011;24211;49.980;19.776;2022-07-11T02:41:05;2.05;;;1.00;;
38427;SDS011;24211;49.980;19.776;2022-07-11T02:43:32;1.65;;;0.85;;
38427;SDS011;24211;49.980;19.776;2022-07-11T02:45:59;1.58;;;0.80;;
38427;SDS011;24211;49.980;19.776;2022-07-11T02:48:28;2.47;;;0.90;;
38427;SDS011;24211;49.980;19.776;2022-07-11T02:50:57;3.03;;;1.10;;
38427;SDS011;24211;49.980;19.776;2022-07-11T02:53:24;2.15;;;0.95;;
38427;SDS011;24211;49.980;19.776;2022-07-11T02:55:51;1.58;;;0.73;;
38427;SDS011;24211;49.980;19.776;2022-07-11T02:58:18;2.28;;;1.13;;
38427;SDS011;24211;49.980;19.776;2022-07-11T03:00:45;3.10;;;0.85;;
38427;SDS011;24211;49.980;19.776;2022-07-11T03:03:13;1.92;;;0.70;;
38427;SDS011;24211;49.980;19.776;2022-07-11T03:05:40;2.08;;;0.85;;
38427;SDS011;24211;49.980;19.776;2022-07-11T03:08:07;1.52;;;0.80;;
38427;SDS011;24211;49.980;19.776;2022-07-11T03:10:34;2.08;;;0.90;;
38427;SDS011;24211;49.980;19.776;2022-07-11T03:13:01;2.13;;;0.90;;
38427;SDS011;24211;49.980;19.776;2022-07-11T03:15:29;2.58;;;0.90;;
38427;SDS011;24211;49.980;19.776;2022-07-11T03:17:56;2.38;;;1.02;;
38427;SDS011;24211;49.980;19.776;2022-07-11T03:20:23;2.88;;;0.93;;
38427;SDS011;24211;49.980;19.776;2022-07-11T03:22:51;4.57;;;1.25;;
38427;SDS011;24211;49.980;19.776;2022-07-11T03:25:18;2.88;;;1.10;;
38427;SDS011;24211;49.980;19.776;2022-07-11T03:27:45;3.10;;;1.05;;
38427;SDS011;24211;49.980;19.776;2022-07-11T03:30:12;3.00;;;0.85;;
38427;SDS011;24211;49.980;19.776;2022-07-11T03:32:41;2.75;;;1.10;;
38427;SDS011;24211;49.980;19.776;2022-07-11T03:35:08;2.70;;;1.00;;
38427;SDS011;24211;49.980;19.776;2022-07-11T03:37:54;2.67;;;0.98;;
38427;SDS011;24211;49.980;19.776;2022-07-11T03:40:22;3.45;;;1.30;;
38427;SDS011;24211;49.980;19.776;2022-07-11T03:42:49;1.95;;;1.00;;
38427;SDS011;24211;49.980;19.776;2022-07-11T03:45:17;3.30;;;1.20;;
38427;SDS011;24211;49.980;19.776;2022-07-11T03:47:44;3.05;;;1.17;;
38427;SDS011;24211;49.980;19.776;2022-07-11T03:50:14;3.25;;;0.95;;
38427;SDS011;24211;49.980;19.776;2022-07-11T03:52:42;3.33;;;1.33;;
38427;SDS011;24211;49.980;19.776;2022-07-11T03:55:11;3.35;;;1.10;;
38427;SDS011;24211;49.980;19.776;2022-07-11T03:57:38;3.67;;;1.10;;
38427;SDS011;24211;49.980;19.776;2022-07-11T04:00:06;4.15;;;1.10;;
38427;SDS011;24211;49.980;19.776;2022-07-11T04:02:35;4.15;;;1.10;;
38427;SDS011;24211;49.980;19.776;2022-07-11T04:05:03;3.03;;;0.98;;
38427;SDS011;24211;49.980;19.776;2022-07-11T04:07:32;2.53;;;1.00;;
38427;SDS011;24211;49.980;19.776;2022-07-11T04:09:59;2.70;;;1.08;;
38427;SDS011;24211;49.980;19.776;2022-07-11T04:12:26;3.42;;;1.05;;
38427;SDS011;24211;49.980;19.776;2022-07-11T04:14:53;2.40;;;1.00;;
38427;SDS011;24211;49.980;19.776;2022-07-11T04:17:20;2.85;;;0.90;;
38427;SDS011;24211;49.980;19.776;2022-07-11T04:19:47;2.58;;;0.93;;
38427;SDS011;24211;49.980;19.776;2022-07-11T04:22:15;2.35;;;0.98;;
38427;SDS011;24211;49.980;19.776;2022-07-11T04:24:42;3.70;;;1.05;;
38427;SDS011;24211;49.980;19.776;2022-07-11T04:27:09;4.60;;;1.00;;
38427;SDS011;24211;49.980;19.776;2022-07-11T04:29:36;2.55;;;1.02;;
38427;SDS011;24211;49.980;19.776;2022-07-11T04:32:04;3.30;;;1.10;;
38427;SDS011;24211;49.980;19.776;2022-07-11T04:34:32;3.13;;;1.25;;
38427;SDS011;24211;49.980;19.776;2022-07-11T04:36:59;3.17;;;1.08;;
38427;SDS011;24211;49.980;19.776;2022-07-11T04:39:27;2.63;;;1.05;;
38427;SDS011;24211;49.980;19.776;2022-07-11T04:41:54;2.70;;;1.00;;
38427;SDS011;24211;49.980;19.776;2022-07-11T04:44:21;4.63;;;1.20;;
38427;SDS011;24211;49.980;19.776;2022-07-11T04:46:49;2.63;;;1.02;;
38427;SDS011;24211;49.980;19.776;2022-07-11T04:49:16;2.88;;;1.02;;
38427;SDS011;24211;49.980;19.776;2022-07-11T04:51:43;3.30;;;1.00;;
38427;SDS011;24211;49.980;19.776;2022-07-11T04:54:11;3.60;;;1.00;;
38427;SDS011;24211;49.980;19.776;2022-07-11T04:56:38;3.05;;;0.90;;
38427;SDS011;24211;49.980;19.776;2022-07-11T04:59:08;2.55;;;1.02;;
38427;SDS011;24211;49.980;19.776;2022-07-11T05:01:36;3.42;;;1.00;;
38427;SDS011;24211;49.980;19.776;2022-07-11T05:04:03;2.72;;;1.08;;
38427;SDS011;24211;49.980;19.776;2022-07-11T05:06:30;2.70;;;1.00;;
38427;SDS011;24211;49.980;19.776;2022-07-11T05:08:58;2.72;;;0.90;;
38427;SDS011;24211;49.980;19.776;2022-07-11T05:11:27;2.42;;;1.00;;
38427;SDS011;24211;49.980;19.776;2022-07-11T05:13:55;2.45;;;0.90;;
38427;SDS011;24211;49.980;19.776;2022-07-11T05:16:23;2.70;;;0.80;;
38427;SDS011;24211;49.980;19.776;2022-07-11T05:18:50;2.72;;;1.00;;
38427;SDS011;24211;49.980;19.776;2022-07-11T05:21:18;3.17;;;1.00;;
38427;SDS011;24211;49.980;19.776;2022-07-11T05:23:49;3.53;;;0.80;;
38427;SDS011;24211;49.980;19.776;2022-07-11T05:26:16;2.47;;;0.90;;
38427;SDS011;24211;49.980;19.776;2022-07-11T05:28:44;2.17;;;0.90;;
38427;SDS011;24211;49.980;19.776;2022-07-11T05:31:11;1.73;;;0.95;;
38427;SDS011;24211;49.980;19.776;2022-07-11T05:33:38;2.33;;;0.90;;
38427;SDS011;24211;49.980;19.776;2022-07-11T05:36:06;3.00;;;0.95;;
38427;SDS011;24211;49.980;19.776;2022-07-11T05:38:34;2.30;;;1.02;;
38427;SDS011;24211;49.980;19.776;2022-07-11T05:41:02;1.98;;;1.00;;
38427;SDS011;24211;49.980;19.776;2022-07-11T05:43:30;2.15;;;1.00;;
38427;SDS011;24211;49.980;19.776;2022-07-11T05:45:57;2.08;;;0.85;;
38427;SDS011;24211;49.980;19.776;2022-07-11T05:48:24;3.63;;;0.98;;
38427;SDS011;24211;49.980;19.776;2022-07-11T05:50:51;5.75;;;1.35;;
38427;SDS011;24211;49.980;19.776;2022-07-11T05:53:18;4.22;;;1.10;;
38427;SDS011;24211;49.980;19.776;2022-07-11T05:55:46;3.78;;;1.38;;
38427;SDS011;24211;49.980;19.776;2022-07-11T05:58:13;4.68;;;1.30;;
38427;SDS011;24211;49.980;19.776;2022-07-11T06:00:40;4.85;;;1.35;;
38427;SDS011;24211;49.980;19.776;2022-07-11T06:03:07;3.97;;;1.50;;
38427;SDS011;24211;49.980;19.776;2022-07-11T06:05:35;3.75;;;1.50;;
38427;SDS011;24211;49.980;19.776;2022-07-11T06:08:02;5.45;;;1.55;;
38427;SDS011;24211;49.980;19.776;2022-07-11T06:10:48;4.15;;;1.50;;
38427;SDS011;24211;49.980;19.776;2022-07-11T06:13:15;3.75;;;1.50;;
38427;SDS011;24211;49.980;19.776;2022-07-11T06:15:42;4.97;;;1.48;;
38427;SDS011;24211;49.980;19.776;2022-07-11T06:18:09;3.90;;;1.40;;
38427;SDS011;24211;49.980;19.776;2022-07-11T06:20:36;3.55;;;1.50;;
38427;SDS011;24211;49.980;19.776;2022-07-11T06:23:04;6.03;;;1.75;;
38427;SDS011;24211;49.980;19.776;2022-07-11T06:25:32;5.35;;;1.45;;
38427;SDS011;24211;49.980;19.776;2022-07-11T06:28:00;4.45;;;1.63;;
38427;SDS011;24211;49.980;19.776;2022-07-11T06:30:28;4.15;;;1.42;;
38427;SDS011;24211;49.980;19.776;2022-07-11T06:32:55;6.78;;;1.50;;
38427;SDS011;24211;49.980;19.776;2022-07-11T06:35:22;4.70;;;1.45;;
38427;SDS011;24211;49.980;19.776;2022-07-11T06:37:50;3.47;;;1.40;;
38427;SDS011;24211;49.980;19.776;2022-07-11T06:40:17;4.00;;;1.38;;
38427;SDS011;24211;49.980;19.776;2022-07-11T06:42:44;5.35;;;1.73;;
38427;SDS011;24211;49.980;19.776;2022-07-11T06:45:12;5.25;;;1.60;;
38427;SDS011;24211;49.980;19.776;2022-07-11T06:47:39;5.15;;;1.58;;
38427;SDS011;24211;49.980;19.776;2022-07-11T06:50:07;6.47;;;1.52;;
38427;SDS011;24211;49.980;19.776;2022-07-11T06:52:35;7.68;;;1.75;;
38427;SDS011;24211;49.980;19.776;2022-07-11T06:55:03;4.18;;;1.60;;
38427;SDS011;24211;49.980;19.776;2022-07-11T06:57:31;4.18;;;1.33;;
38427;SDS011;24211;49.980;19.776;2022-07-11T06:59:58;4.53;;;1.30;;
38427;SDS011;24211;49.980;19.776;2022-07-11T07:02:25;4.30;;;1.55;;
38427;SDS011;24211;49.980;19.776;2022-07-11T07:04:56;5.25;;;1.52;;
38427;SDS011;24211;49.980;19.776;2022-07-11T07:07:27;5.43;;;1.55;;
38427;SDS011;24211;49.980;19.776;2022-07-11T07:09:54;5.03;;;1.42;;
38427;SDS011;24211;49.980;19.776;2022-07-11T07:12:22;4.65;;;1.50;;
38427;SDS011;24211;49.980;19.776;2022-07-11T07:14:50;5.47;;;1.50;;
38427;SDS011;24211;49.980;19.776;2022-07-11T07:17:17;4.68;;;1.30;;
38427;SDS011;24211;49.980;19.776;2022-07-11T07:19:44;4.55;;;1.27;;
38427;SDS011;24211;49.980;19.776;2022-07-11T07:22:12;5.60;;;1.40;;
38427;SDS011;24211;49.980;19.776;2022-07-11T07:24:43;5.95;;;1.48;;
38427;SDS011;24211;49.980;19.776;2022-07-11T07:27:10;4.25;;;1.40;;
38427;SDS011;24211;49.980;19.776;2022-07-11T07:29:38;6.55;;;1.20;;
38427;SDS011;24211;49.980;19.776;2022-07-11T07:32:05;4.15;;;1.25;;
38427;SDS011;24211;49.980;19.776;2022-07-11T07:34:34;6.78;;;1.58;;
38427;SDS011;24211;49.980;19.776;2022-07-11T07:37:01;4.43;;;1.17;;
38427;SDS011;24211;49.980;19.776;2022-07-11T07:39:28;5.28;;;1.10;;
38427;SDS011;24211;49.980;19.776;2022-07-11T07:41:56;4.78;;;1.10;;
38427;SDS011;24211;49.980;19.776;2022-07-11T07:44:23;2.67;;;1.00;;
38427;SDS011;24211;49.980;19.776;2022-07-11T07:46:50;4.53;;;1.25;;
38427;SDS011;24211;49.980;19.776;2022-07-11T07:49:17;4.55;;;1.33;;
38427;SDS011;24211;49.980;19.776;2022-07-11T07:51:45;6.60;;;1.10;;
38427;SDS011;24211;49.980;19.776;2022-07-11T07:54:12;4.00;;;1.30;;
38427;SDS011;24211;49.980;19.776;2022-07-11T07:56:40;4.57;;;1.17;;
38427;SDS011;24211;49.980;19.776;2022-07-11T07:59:07;4.40;;;1.20;;
38427;SDS011;24211;49.980;19.776;2022-07-11T08:01:34;4.55;;;1.00;;
38427;SDS011;24211;49.980;19.776;2022-07-11T08:04:02;6.93;;;1.20;;
38427;SDS011;24211;49.980;19.776;2022-07-11T08:06:35;3.55;;;1.20;;
38427;SDS011;24211;49.980;19.776;2022-07-11T08:09:06;5.25;;;1.20;;
38427;SDS011;24211;49.980;19.776;2022-07-11T08:11:34;4.90;;;1.30;;
38427;SDS011;24211;49.980;19.776;2022-07-11T08:14:02;2.90;;;1.20;;
38427;SDS011;24211;49.980;19.776;2022-07-11T08:16:31;3.13;;;1.02;;
38427;SDS011;24211;49.980;19.776;2022-07-11T08:19:00;2.42;;;0.90;;
38427;SDS011;24211;49.980;19.776;2022-07-11T08:21:31;5.55;;;1.10;;
38427;SDS011;24211;49.980;19.776;2022-07-11T08:24:00;3.17;;;1.00;;
38427;SDS011;24211;49.980;19.776;2022-07-11T08:26:31;5.15;;;1.00;;
38427;SDS011;24211;49.980;19.776;2022-07-11T08:32:19;3.50;;;0.93;;
38427;SDS011;24211;49.980;19.776;2022-07-11T08:34:46;2.80;;;1.13;;
38427;SDS011;24211;49.980;19.776;2022-07-11T08:37:13;2.08;;;0.98;;
38427;SDS011;24211;49.980;19.776;2022-07-11T08:39:41;3.83;;;1.17;;
38427;SDS011;24211;49.980;19.776;2022-07-11T08:42:14;4.85;;;1.15;;
38427;SDS011;24211;49.980;19.776;2022-07-11T08:44:46;3.83;;;1.20;;
38427;SDS011;24211;49.980;19.776;2022-07-11T08:47:13;4.53;;;1.20;;
38427;SDS011;24211;49.980;19.776;2022-07-11T08:49:41;4.15;;;1.20;;
38427;SDS011;24211;49.980;19.776;2022-07-11T08:52:11;3.55;;;1.05;;
38427;SDS011;24211;49.980;19.776;2022-07-11T08:54:42;2.65;;;1.10;;
38427;SDS011;24211;49.980;19.776;2022-07-11T08:57:09;3.13;;;1.00;;
38427;SDS011;24211;49.980;19.776;2022-07-11T08:59:38;2.13;;;0.90;;
38427;SDS011;24211;49.980;19.776;2022-07-11T09:02:08;3.47;;;1.20;;
38427;SDS011;24211;49.980;19.776;2022-07-11T09:04:39;4.15;;;1.20;;
38427;SDS011;24211;49.980;19.776;2022-07-11T09:07:07;3.38;;;1.00;;
38427;SDS011;24211;49.980;19.776;2022-07-11T09:09:34;3.47;;;0.77;;
38427;SDS011;24211;49.980;19.776;2022-07-11T09:12:02;4.13;;;1.20;;
38427;SDS011;24211;49.980;19.776;2022-07-11T09:14:49;2.78;;;0.90;;
38427;SDS011;24211;49.980;19.776;2022-07-11T09:17:24;3.85;;;0.85;;
38427;SDS011;24211;49.980;19.776;2022-07-11T09:19:54;3.95;;;1.00;;
38427;SDS011;24211;49.980;19.776;2022-07-11T09:22:22;3.30;;;1.02;;
38427;SDS011;24211;49.980;19.776;2022-07-11T09:25:09;3.25;;;1.10;;
38427;SDS011;24211;49.980;19.776;2022-07-11T09:28:00;4.82;;;1.10;;
38427;SDS011;24211;49.980;19.776;2022-07-11T09:30:35;5.15;;;1.02;;
38427;SDS011;24211;49.980;19.776;2022-07-11T09:33:10;3.72;;;1.00;;
38427;SDS011;24211;49.980;19.776;2022-07-11T09:35:40;2.40;;;1.00;;
38427;SDS011;24211;49.980;19.776;2022-07-11T09:38:13;4.00;;;0.80;;
38427;SDS011;24211;49.980;19.776;2022-07-11T09:40:44;4.13;;;1.00;;
38427;SDS011;24211;49.980;19.776;2022-07-11T09:43:14;2.92;;;1.00;;
38427;SDS011;24211;49.980;19.776;2022-07-11T09:45:51;3.92;;;0.90;;
38427;SDS011;24211;49.980;19.776;2022-07-11T09:48:19;4.00;;;0.95;;
38427;SDS011;24211;49.980;19.776;2022-07-11T09:50:56;3.13;;;1.00;;
38427;SDS011;24211;49.980;19.776;2022-07-11T09:53:31;3.90;;;0.90;;
38427;SDS011;24211;49.980;19.776;2022-07-11T09:55:59;4.68;;;1.10;;
38427;SDS011;24211;49.980;19.776;2022-07-11T09:58:29;2.55;;;0.98;;
38427;SDS011;24211;49.980;19.776;2022-07-11T10:00:58;3.97;;;0.95;;
38427;SDS011;24211;49.980;19.776;2022-07-11T10:03:25;2.92;;;0.90;;
38427;SDS011;24211;49.980;19.776;2022-07-11T10:06:16;2.47;;;0.88;;
38427;SDS011;24211;49.980;19.776;2022-07-11T10:08:43;3.45;;;1.00;;
38427;SDS011;24211;49.980;19.776;2022-07-11T10:11:11;3.97;;;1.10;;
38427;SDS011;24211;49.980;19.776;2022-07-11T10:13:39;1.85;;;0.73;;
38427;SDS011;24211;49.980;19.776;2022-07-11T10:16:11;4.40;;;0.90;;
38427;SDS011;24211;49.980;19.776;2022-07-11T10:25:19;1.83;;;0.70;;
38427;SDS011;24211;49.980;19.776;2022-07-11T10:28:13;2.08;;;0.70;;
38427;SDS011;24211;49.980;19.776;2022-07-11T10:31:05;2.03;;;0.80;;
38427;SDS011;24211;49.980;19.776;2022-07-11T10:34:05;2.35;;;0.65;;
38427;SDS011;24211;49.980;19.776;2022-07-11T10:36:39;2.45;;;0.73;;
38427;SDS011;24211;49.980;19.776;2022-07-11T10:39:17;3.65;;;0.90;;
38427;SDS011;24211;49.980;19.776;2022-07-11T10:41:56;2.47;;;0.90;;
38427;SDS011;24211;49.980;19.776;2022-07-11T10:44:26;4.25;;;0.80;;
38427;SDS011;24211;49.980;19.776;2022-07-11T10:52:48;1.80;;;0.70;;
38427;SDS011;24211;49.980;19.776;2022-07-11T10:58:19;2.20;;;0.65;;
38427;SDS011;24211;49.980;19.776;2022-07-11T11:01:08;2.80;;;0.80;;
38427;SDS011;24211;49.980;19.776;2022-07-11T11:03:40;2.75;;;0.70;;
38427;SDS011;24211;49.980;19.776;2022-07-11T11:06:10;3.03;;;0.82;;
38427;SDS011;24211;49.980;19.776;2022-07-11T11:16:49;5.28;;;0.82;;
38427;SDS011;24211;49.980;19.776;2022-07-11T11:22:16;3.78;;;1.20;;
38427;SDS011;24211;49.980;19.776;2022-07-11T11:24:47;4.50;;;1.10;;
38427;SDS011;24211;49.980;19.776;2022-07-11T11:27:47;5.30;;;1.20;;
38427;SDS011;24211;49.980;19.776;2022-07-11T11:30:32;2.03;;;0.55;;
38427;SDS011;24211;49.980;19.776;2022-07-11T11:33:00;2.30;;;0.68;;
38427;SDS011;24211;49.980;19.776;2022-07-11T11:35:29;2.05;;;0.70;;
38427;SDS011;24211;49.980;19.776;2022-07-11T11:37:58;3.72;;;0.70;;
38427;SDS011;24211;49.980;19.776;2022-07-11T11:40:28;1.42;;;0.50;;
38427;SDS011;24211;49.980;19.776;2022-07-11T11:42:55;2.67;;;0.60;;
38427;SDS011;24211;49.980;19.776;2022-07-11T11:45:22;2.03;;;0.60;;
38427;SDS011;24211;49.980;19.776;2022-07-11T11:47:49;2.03;;;0.40;;
38427;SDS011;24211;49.980;19.776;2022-07-11T11:50:18;1.67;;;0.45;;
38427;SDS011;24211;49.980;19.776;2022-07-11T11:52:45;0.88;;;0.50;;
38427;SDS011;24211;49.980;19.776;2022-07-11T11:55:13;2.15;;;0.60;;
38427;SDS011;24211;49.980;19.776;2022-07-11T11:57:40;1.15;;;0.47;;
38427;SDS011;24211;49.980;19.776;2022-07-11T12:00:29;1.95;;;0.30;;
38427;SDS011;24211;49.980;19.776;2022-07-11T12:03:18;1.08;;;0.40;;
38427;SDS011;24211;49.980;19.776;2022-07-11T12:05:55;0.35;;;0.30;;
38427;SDS011;24211;49.980;19.776;2022-07-11T12:08:27;0.95;;;0.40;;
38427;SDS011;24211;49.980;19.776;2022-07-11T12:10:55;0.95;;;0.47;;
38427;SDS011;24211;49.980;19.776;2022-07-11T12:13:23;1.50;;;0.38;;
38427;SDS011;24211;49.980;19.776;2022-07-11T12:15:50;1.05;;;0.30;;
38427;SDS011;24211;49.980;19.776;2022-07-11T12:18:37;1.95;;;0.40;;
38427;SDS011;24211;49.980;19.776;2022-07-11T12:21:11;0.95;;;0.40;;
38427;SDS011;24211;49.980;19.776;2022-07-11T12:23:39;3.17;;;0.82;;
38427;SDS011;24211;49.980;19.776;2022-07-11T12:26:07;1.40;;;0.50;;
38427;SDS011;24211;49.980;19.776;2022-07-11T12:28:34;1.10;;;0.50;;
38427;SDS011;24211;49.980;19.776;2022-07-11T12:31:03;1.00;;;0.45;;
38427;SDS011;24211;49.980;19.776;2022-07-11T12:33:33;1.08;;;0.30;;
38427;SDS011;24211;49.980;19.776;2022-07-11T12:36:01;1.83;;;0.40;;
38427;SDS011;24211;49.980;19.776;2022-07-11T12:38:47;0.70;;;0.35;;
38427;SDS011;24211;49.980;19.776;2022-07-11T12:41:18;2.08;;;0.40;;
38427;SDS011;24211;49.980;19.776;2022-07-11T12:43:47;2.92;;;0.50;;
38427;SDS011;24211;49.980;19.776;2022-07-11T12:46:36;1.45;;;0.45;;
38427;SDS011;24211;49.980;19.776;2022-07-11T12:49:07;1.15;;;0.32;;
38427;SDS011;24211;49.980;19.776;2022-07-11T12:51:39;0.88;;;0.28;;
38427;SDS011;24211;49.980;19.776;2022-07-11T12:54:13;1.25;;;0.40;;
38427;SDS011;24211;49.980;19.776;2022-07-11T12:56:55;2.70;;;0.52;;
38427;SDS011;24211;49.980;19.776;2022-07-11T12:59:24;1.65;;;0.30;;
38427;SDS011;24211;49.980;19.776;2022-07-11T13:01:54;0.98;;;0.40;;
38427;SDS011;24211;49.980;19.776;2022-07-11T13:07:17;2.03;;;0.60;;
38427;SDS011;24211;49.980;19.776;2022-07-11T13:12:53;1.15;;;0.50;;
38427;SDS011;24211;49.980;19.776;2022-07-11T13:15:22;1.70;;;0.70;;
38427;SDS011;24211;49.980;19.776;2022-07-11T13:17:53;2.22;;;0.50;;
38427;SDS011;24211;49.980;19.776;2022-07-11T13:20:26;1.73;;;0.60;;
38427;SDS011;24211;49.980;19.776;2022-07-11T13:25:23;1.58;;;0.50;;
38427;SDS011;24211;49.980;19.776;2022-07-11T13:27:51;2.55;;;0.50;;
38427;SDS011;24211;49.980;19.776;2022-07-11T13:30:21;1.92;;;0.50;;
38427;SDS011;24211;49.980;19.776;2022-07-11T13:33:13;2.20;;;0.50;;
38427;SDS011;24211;49.980;19.776;2022-07-11T13:35:41;1.38;;;0.40;;
38427;SDS011;24211;49.980;19.776;2022-07-11T13:38:08;2.65;;;0.50;;
38427;SDS011;24211;49.980;19.776;2022-07-11T13:40:36;1.88;;;0.63;;
38427;SDS011;24211;49.980;19.776;2022-07-11T13:43:03;0.70;;;0.32;;
38427;SDS011;24211;49.980;19.776;2022-07-11T13:45:30;0.77;;;0.40;;
38427;SDS011;24211;49.980;19.776;2022-07-11T13:47:58;1.15;;;0.30;;
38427;SDS011;24211;49.980;19.776;2022-07-11T13:50:25;1.35;;;0.30;;
38427;SDS011;24211;49.980;19.776;2022-07-11T13:52:53;1.42;;;0.30;;
38427;SDS011;24211;49.980;19.776;2022-07-11T13:55:21;1.73;;;0.40;;
38427;SDS011;24211;49.980;19.776;2022-07-11T13:57:50;1.10;;;0.30;;
38427;SDS011;24211;49.980;19.776;2022-07-11T14:00:20;1.75;;;0.40;;
38427;SDS011;24211;49.980;19.776;2022-07-11T14:02:48;0.60;;;0.30;;
38427;SDS011;24211;49.980;19.776;2022-07-11T14:05:16;1.63;;;0.38;;
38427;SDS011;24211;49.980;19.776;2022-07-11T14:07:47;1.77;;;0.30;;
38427;SDS011;24211;49.980;19.776;2022-07-11T14:10:16;1.25;;;0.40;;
38427;SDS011;24211;49.980;19.776;2022-07-11T14:12:43;3.40;;;0.30;;
38427;SDS011;24211;49.980;19.776;2022-07-11T14:15:10;0.60;;;0.30;;
38427;SDS011;24211;49.980;19.776;2022-07-11T14:17:38;0.57;;;0.20;;
38427;SDS011;24211;49.980;19.776;2022-07-11T14:20:06;0.50;;;0.30;;
38427;SDS011;24211;49.980;19.776;2022-07-11T14:22:34;2.13;;;0.50;;
38427;SDS011;24211;49.980;19.776;2022-07-11T14:25:02;0.70;;;0.20;;
38427;SDS011;24211;49.980;19.776;2022-07-11T14:27:30;0.60;;;0.28;;
38427;SDS011;24211;49.980;19.776;2022-07-11T14:29:57;2.15;;;0.30;;
38427;SDS011;24211;49.980;19.776;2022-07-11T14:32:24;0.60;;;0.28;;
38427;SDS011;24211;49.980;19.776;2022-07-11T14:34:52;0.40;;;0.25;;
38427;SDS011;24211;49.980;19.776;2022-07-11T14:37:19;0.40;;;0.20;;
38427;SDS011;24211;49.980;19.776;2022-07-11T14:39:47;0.60;;;0.20;;
38427;SDS011;24211;49.980;19.776;2022-07-11T14:42:14;0.45;;;0.10;;
38427;SDS011;24211;49.980;19.776;2022-07-11T14:45:02;0.63;;;0.20;;
38427;SDS011;24211;49.980;19.776;2022-07-11T14:47:29;0.50;;;0.17;;
38427;SDS011;24211;49.980;19.776;2022-07-11T14:49:56;0.73;;;0.20;;
38427;SDS011;24211;49.980;19.776;2022-07-11T14:52:24;1.00;;;0.30;;
38427;SDS011;24211;49.980;19.776;2022-07-11T14:54:51;0.75;;;0.10;;
38427;SDS011;24211;49.980;19.776;2022-07-11T14:57:19;0.73;;;0.20;;
38427;SDS011;24211;49.980;19.776;2022-07-11T14:59:46;0.32;;;0.20;;
38427;SDS011;24211;49.980;19.776;2022-07-11T15:02:13;0.30;;;0.20;;
38427;SDS011;24211;49.980;19.776;2022-07-11T15:04:41;2.25;;;0.20;;
38427;SDS011;24211;49.980;19.776;2022-07-11T15:07:13;0.28;;;0.20;;
38427;SDS011;24211;49.980;19.776;2022-07-11T15:09:59;0.40;;;0.20;;
38427;SDS011;24211;49.980;19.776;2022-07-11T15:12:44;0.52;;;0.20;;
38427;SDS011;24211;49.980;19.776;2022-07-11T15:15:12;2.20;;;0.30;;
38427;SDS011;24211;49.980;19.776;2022-07-11T15:17:39;0.60;;;0.30;;
38427;SDS011;24211;49.980;19.776;2022-07-11T15:20:07;0.93;;;0.40;;
38427;SDS011;24211;49.980;19.776;2022-07-11T15:22:35;1.48;;;0.50;;
38427;SDS011;24211;49.980;19.776;2022-07-11T15:25:02;1.10;;;0.40;;